createdAt,value
2022-11-16T00:01:10.490Z,10.73
2022-11-16T00:03:37.150Z,10.70
2022-11-16T00:06:05.720Z,10.67
2022-11-16T00:08:35.266Z,10.64
2022-11-16T00:11:11.395Z,10.62
2022-11-16T00:13:39.668Z,10.61
2022-11-16T00:16:07.659Z,10.60
2022-11-16T00:18:34.725Z,10.59
2022-11-16T00:21:04.390Z,10.57
2022-11-16T00:23:31.394Z,10.55
2022-11-16T00:26:04.251Z,10.54
2022-11-16T00:28:30.957Z,10.53
2022-11-16T00:31:02.556Z,10.53
2022-11-16T00:33:29.206Z,10.52
2022-11-16T00:35:56.147Z,10.52
2022-11-16T00:38:22.949Z,10.50
2022-11-16T00:40:49.930Z,10.49
2022-11-16T00:43:16.414Z,10.49
2022-11-16T00:45:44.106Z,10.49
2022-11-16T00:48:11.224Z,10.48
2022-11-16T00:50:38.108Z,10.47
2022-11-16T00:53:05.743Z,10.47
2022-11-16T00:55:32.970Z,10.47
2022-11-16T00:57:59.767Z,10.47
2022-11-16T01:00:26.633Z,10.48
2022-11-16T01:02:54.560Z,10.47
2022-11-16T01:05:22.149Z,10.47
2022-11-16T01:07:50.036Z,10.46
2022-11-16T01:10:19.513Z,10.44
2022-11-16T01:12:47.285Z,10.43
2022-11-16T01:15:14.118Z,10.42
2022-11-16T01:17:41.703Z,10.41
2022-11-16T01:20:13.373Z,10.41
2022-11-16T01:22:40.550Z,10.43
2022-11-16T01:25:08.046Z,10.43
2022-11-16T01:27:34.665Z,10.43
2022-11-16T01:30:01.218Z,10.43
2022-11-16T01:32:27.687Z,10.44
2022-11-16T01:34:54.123Z,10.46
2022-11-16T01:37:20.723Z,10.46
2022-11-16T01:39:49.718Z,10.44
2022-11-16T01:42:21.549Z,10.43
2022-11-16T01:44:47.928Z,10.42
2022-11-16T01:47:16.558Z,10.41
2022-11-16T01:49:46.161Z,10.40
2022-11-16T01:52:17.025Z,10.39
2022-11-16T01:54:46.410Z,10.38
2022-11-16T01:57:20.120Z,10.37
2022-11-16T01:59:48.320Z,10.37
2022-11-16T02:02:15.453Z,10.36
2022-11-16T02:04:42.506Z,10.34
2022-11-16T02:07:54.173Z,10.33
2022-11-16T02:10:46.536Z,10.31
2022-11-16T02:13:41.685Z,10.30
2022-11-16T02:16:11.214Z,10.30
2022-11-16T02:19:15.651Z,10.28
2022-11-16T02:22:04.334Z,10.27
2022-11-16T02:25:01.232Z,10.27
2022-11-16T02:28:01.467Z,10.24
2022-11-16T02:30:27.990Z,10.21
2022-11-16T02:33:03.710Z,10.20
2022-11-16T02:35:47.214Z,10.17
2022-11-16T02:38:19.558Z,10.14
2022-11-16T02:40:50.716Z,10.12
2022-11-16T02:43:26.446Z,10.10
2022-11-16T02:45:58.146Z,10.09
2022-11-16T02:48:30.185Z,10.11
2022-11-16T02:50:57.360Z,10.11
2022-11-16T02:53:25.533Z,10.13
2022-11-16T02:55:52.228Z,10.14
2022-11-16T02:58:23.504Z,10.13
2022-11-16T03:01:08.335Z,10.12
2022-11-16T03:03:34.736Z,10.11
2022-11-16T03:06:03.746Z,10.07
2022-11-16T03:08:40.408Z,10.07
2022-11-16T03:11:27.507Z,10.07
2022-11-16T03:14:11.645Z,10.06
2022-11-16T03:16:46.126Z,10.06
2022-11-16T03:19:16.291Z,10.06
2022-11-16T03:21:51.498Z,10.07
2022-11-16T03:24:18.402Z,10.07
2022-11-16T03:27:02.556Z,10.05
2022-11-16T03:29:40.268Z,10.05
2022-11-16T03:32:33.942Z,10.03
2022-11-16T03:35:06.310Z,10.00
2022-11-16T03:37:34.955Z,9.99
2022-11-16T03:40:04.041Z,9.97
2022-11-16T03:42:32.282Z,9.94
2022-11-16T03:45:00.231Z,9.91
2022-11-16T03:47:26.647Z,9.90
2022-11-16T03:49:53.164Z,9.89
2022-11-16T03:52:19.730Z,9.88
2022-11-16T03:54:46.207Z,9.88
2022-11-16T03:57:15.738Z,9.87
2022-11-16T03:59:43.290Z,9.81
2022-11-16T04:02:10.561Z,9.74
2022-11-16T04:04:55.630Z,9.73
2022-11-16T04:07:40.723Z,9.72
2022-11-16T04:10:26.349Z,9.71
2022-11-16T04:13:11.382Z,9.68
2022-11-16T04:15:56.502Z,9.66
2022-11-16T04:18:41.565Z,9.64
2022-11-16T04:21:41.430Z,9.61
2022-11-16T04:24:17.038Z,9.58
2022-11-16T04:27:05.955Z,9.53
2022-11-16T04:29:33.180Z,9.51
2022-11-16T04:32:18.268Z,9.50
2022-11-16T04:35:03.408Z,9.46
2022-11-16T04:37:48.633Z,9.42
2022-11-16T04:40:21.119Z,9.38
2022-11-16T04:43:02.051Z,9.35
2022-11-16T04:45:47.861Z,9.31
2022-11-16T04:48:16.837Z,9.29
2022-11-16T04:50:43.806Z,9.27
2022-11-16T04:53:10.845Z,9.25
2022-11-16T04:55:37.612Z,9.23
2022-11-16T04:58:04.958Z,9.22
2022-11-16T05:00:31.902Z,9.20
2022-11-16T05:03:01.584Z,9.18
2022-11-16T05:05:28.775Z,9.17
2022-11-16T05:07:55.695Z,9.16
2022-11-16T05:10:22.465Z,9.13
2022-11-16T05:12:48.896Z,9.11
2022-11-16T05:15:17.631Z,9.09
2022-11-16T05:17:44.214Z,9.06
2022-11-16T05:20:29.906Z,9.04
2022-11-16T05:22:58.413Z,9.02
2022-11-16T05:25:25.430Z,8.96
2022-11-16T05:27:52.115Z,8.93
2022-11-16T05:30:18.748Z,8.91
2022-11-16T05:32:45.130Z,8.89
2022-11-16T05:35:11.571Z,8.86
2022-11-16T05:37:38.124Z,8.83
2022-11-16T05:40:05.297Z,8.80
2022-11-16T05:42:31.809Z,8.76
2022-11-16T05:44:58.539Z,8.72
2022-11-16T05:47:25.021Z,8.70
2022-11-16T05:49:51.482Z,8.68
2022-11-16T05:52:18.018Z,8.65
2022-11-16T05:54:44.676Z,8.61
2022-11-16T05:57:11.312Z,8.57
2022-11-16T05:59:37.684Z,8.53
2022-11-16T06:02:04.798Z,8.51
2022-11-16T06:04:31.223Z,8.50
2022-11-16T06:06:57.711Z,8.47
2022-11-16T06:09:24.182Z,8.44
2022-11-16T06:11:50.782Z,8.43
2022-11-16T06:14:17.356Z,8.40
2022-11-16T06:16:43.981Z,8.39
2022-11-16T06:19:10.578Z,8.37
2022-11-16T06:21:37.107Z,8.37
2022-11-16T06:24:08.780Z,8.35
2022-11-16T06:26:35.698Z,8.33
2022-11-16T06:29:02.203Z,8.28
2022-11-16T06:31:28.836Z,8.26
2022-11-16T06:33:55.459Z,8.22
2022-11-16T06:36:21.869Z,8.15
2022-11-16T06:38:48.463Z,8.11
2022-11-16T06:41:14.961Z,8.07
2022-11-16T06:43:41.340Z,8.03
2022-11-16T06:46:07.779Z,8.02
2022-11-16T06:48:34.631Z,8.00
2022-11-16T06:51:01.377Z,7.98
2022-11-16T06:53:29.626Z,7.96
2022-11-16T06:56:01.583Z,7.94
2022-11-16T06:58:30.479Z,7.92
2022-11-16T07:00:57.890Z,7.89
2022-11-16T07:03:24.527Z,7.86
2022-11-16T07:05:50.955Z,7.83
2022-11-16T07:08:17.315Z,7.80
2022-11-16T07:10:43.774Z,7.77
2022-11-16T07:13:10.320Z,7.73
2022-11-16T07:15:36.864Z,7.72
2022-11-16T07:18:06.032Z,7.70
2022-11-16T07:20:33.485Z,7.65
2022-11-16T07:23:01.837Z,7.62
2022-11-16T07:25:28.982Z,7.60
2022-11-16T07:27:55.529Z,7.55
2022-11-16T07:30:22.006Z,7.53
2022-11-16T07:32:57.385Z,7.49
2022-11-16T07:35:23.789Z,7.45
2022-11-16T07:37:50.297Z,7.41
2022-11-16T07:40:17.058Z,7.37
2022-11-16T07:42:45.225Z,7.33
2022-11-16T07:45:12.126Z,7.31
2022-11-16T07:47:38.505Z,7.27
2022-11-16T07:50:06.141Z,7.27
2022-11-16T07:52:32.532Z,7.27
2022-11-16T07:54:59.390Z,7.28
2022-11-16T07:57:25.891Z,7.27
2022-11-16T07:59:52.329Z,7.28
2022-11-16T08:02:18.778Z,7.27
2022-11-16T08:04:45.251Z,7.26
2022-11-16T08:07:11.834Z,7.21
2022-11-16T08:09:39.374Z,7.20
2022-11-16T08:12:06.053Z,7.19
2022-11-16T08:14:32.448Z,7.16
2022-11-16T08:28:01.469Z,7.03
2022-11-16T08:30:27.877Z,7.01
2022-11-16T08:32:54.571Z,7.02
2022-11-16T08:35:21.714Z,7.02
2022-11-16T08:37:48.365Z,7.03
2022-11-16T08:40:15.078Z,7.04
2022-11-16T08:42:43.796Z,7.04
2022-11-16T08:45:10.681Z,7.05
2022-11-16T08:47:37.070Z,7.06
2022-11-16T08:50:03.876Z,7.06
2022-11-16T08:52:30.274Z,7.08
2022-11-16T08:54:56.761Z,7.09
2022-11-16T08:57:23.212Z,7.09
2022-11-16T08:59:49.589Z,7.10
2022-11-16T09:02:16.124Z,7.09
2022-11-16T09:04:43.854Z,7.11
2022-11-16T09:07:10.438Z,7.13
2022-11-16T09:09:36.897Z,7.15
2022-11-16T09:12:03.619Z,7.16
2022-11-16T09:14:30.689Z,7.15
2022-11-16T09:16:57.577Z,7.18
2022-11-16T09:19:24.081Z,7.22
2022-11-16T09:21:50.570Z,7.23
2022-11-16T09:24:17.111Z,7.23
2022-11-16T09:26:43.578Z,7.26
2022-11-16T09:29:14.835Z,7.25
2022-11-16T09:31:41.509Z,7.28
2022-11-16T09:34:08.251Z,7.26
2022-11-16T09:36:35.216Z,7.29
2022-11-16T09:39:28.750Z,7.31
2022-11-16T09:42:27.909Z,7.34
2022-11-16T09:45:01.248Z,7.41
2022-11-16T09:47:40.229Z,7.45
2022-11-16T09:50:08.360Z,7.43
2022-11-16T09:52:43.015Z,7.45
2022-11-16T09:55:43.602Z,7.43
2022-11-16T09:58:17.977Z,7.45
2022-11-16T10:00:54.492Z,7.47
2022-11-16T10:03:21.105Z,7.48
2022-11-16T10:06:06.427Z,7.49
2022-11-16T10:08:46.362Z,7.48
2022-11-16T10:11:40.855Z,7.43
2022-11-16T10:14:35.709Z,7.39
2022-11-16T10:17:07.127Z,7.38
2022-11-16T10:19:54.170Z,7.38
2022-11-16T10:22:54.162Z,7.39
2022-11-16T10:25:24.113Z,7.37
2022-11-16T10:28:17.096Z,7.40
2022-11-16T10:30:53.961Z,7.44
2022-11-16T10:33:22.281Z,7.45
2022-11-16T10:35:55.943Z,7.41
2022-11-16T10:38:27.643Z,7.37
2022-11-16T10:41:14.345Z,7.32
2022-11-16T10:43:43.553Z,7.30
2022-11-16T10:46:27.751Z,7.29
2022-11-16T10:49:21.130Z,7.29
2022-11-16T10:51:47.561Z,7.32
2022-11-16T10:54:15.355Z,7.34
2022-11-16T10:56:48.974Z,7.34
2022-11-16T10:59:19.180Z,7.39
2022-11-16T11:01:51.420Z,7.39
2022-11-16T11:04:26.397Z,7.40
2022-11-16T11:07:01.440Z,7.43
2022-11-16T11:09:32.579Z,7.44
2022-11-16T11:12:31.606Z,7.45
2022-11-16T11:15:25.949Z,7.45
2022-11-16T11:18:23.688Z,7.44
2022-11-16T11:21:00.372Z,7.45
2022-11-16T11:23:27.739Z,7.44
2022-11-16T11:25:56.973Z,7.46
2022-11-16T11:28:32.497Z,7.47
2022-11-16T11:31:07.002Z,7.48
2022-11-16T11:33:40.300Z,7.49
2022-11-16T11:36:18.646Z,7.49
2022-11-16T11:39:04.883Z,7.48
2022-11-16T11:41:38.043Z,7.48
2022-11-16T11:44:17.480Z,7.47
2022-11-16T11:47:42.489Z,7.47
2022-11-16T11:49:50.000Z,7.45
2022-11-16T11:52:26.461Z,7.40
2022-11-16T11:54:55.889Z,7.35
2022-11-16T11:57:23.849Z,7.31
2022-11-16T11:59:52.858Z,7.29
2022-11-16T12:02:31.376Z,7.30
2022-11-16T12:05:19.273Z,7.29
2022-11-16T12:07:45.637Z,7.28
2022-11-16T12:10:42.438Z,7.29
2022-11-16T12:13:20.983Z,7.28
2022-11-16T12:16:03.050Z,7.25
2022-11-16T12:19:00.208Z,7.24
2022-11-16T12:22:18.299Z,7.24
2022-11-16T12:25:06.458Z,7.22
2022-11-16T12:27:51.897Z,7.20
2022-11-16T12:30:21.964Z,7.22
2022-11-16T12:33:13.684Z,7.21
2022-11-16T12:35:55.056Z,7.21
2022-11-16T12:38:31.088Z,7.20
2022-11-16T12:41:16.502Z,7.20
2022-11-16T12:43:53.298Z,7.22
2022-11-16T12:46:22.715Z,7.24
2022-11-16T12:49:13.537Z,7.27
2022-11-16T12:51:57.276Z,7.30
2022-11-16T12:55:03.904Z,7.32
2022-11-16T12:57:43.633Z,7.39
2022-11-16T13:00:14.533Z,7.43
2022-11-16T13:03:00.724Z,7.47
2022-11-16T13:05:42.519Z,7.49
2022-11-16T13:08:31.725Z,7.50
2022-11-16T13:11:10.822Z,7.51
2022-11-16T13:13:39.113Z,7.49
2022-11-16T13:16:07.346Z,7.49
2022-11-16T13:18:38.677Z,7.50
2022-11-16T13:21:42.724Z,7.51
2022-11-16T13:24:37.888Z,7.51
2022-11-16T13:27:16.559Z,7.50
2022-11-16T13:30:05.486Z,7.50
2022-11-16T13:32:44.120Z,7.49
2022-11-16T13:35:16.389Z,7.46
2022-11-16T13:37:44.970Z,7.46
2022-11-16T13:40:19.754Z,7.45
2022-11-16T13:43:03.799Z,7.47
2022-11-16T13:45:35.714Z,7.49
2022-11-16T13:48:07.197Z,7.48
2022-11-16T13:50:38.238Z,7.50
2022-11-16T13:56:09.515Z,7.56
2022-11-16T13:58:37.833Z,7.56
2022-11-16T14:01:07.281Z,7.56
2022-11-16T14:03:39.228Z,7.55
2022-11-16T14:06:27.111Z,7.51
2022-11-16T14:08:57.466Z,7.46
2022-11-16T14:11:38.726Z,7.43
2022-11-16T14:14:11.799Z,7.42
2022-11-16T14:16:48.289Z,7.40
2022-11-16T14:19:49.319Z,7.38
2022-11-16T14:22:39.657Z,7.36
2022-11-16T14:25:31.825Z,7.36
2022-11-16T14:28:38.223Z,7.37
2022-11-16T14:31:19.623Z,7.33
2022-11-16T14:33:51.188Z,7.31
2022-11-16T14:36:18.204Z,7.29
2022-11-16T14:38:45.183Z,7.28
2022-11-16T14:41:21.041Z,7.28
2022-11-16T14:43:58.036Z,7.28
2022-11-16T14:46:31.989Z,7.29
2022-11-16T14:49:01.237Z,7.29
2022-11-16T14:51:32.815Z,7.29
2022-11-16T14:54:02.667Z,7.29
2022-11-16T14:56:29.087Z,7.27
2022-11-16T14:59:00.611Z,7.25
2022-11-16T15:01:39.680Z,7.22
2022-11-16T15:04:09.421Z,7.17
2022-11-16T15:06:42.788Z,7.12
2022-11-16T15:09:16.970Z,7.09
2022-11-16T15:12:07.433Z,7.06
2022-11-16T15:14:40.416Z,7.04
2022-11-16T15:17:09.358Z,7.00
2022-11-16T15:19:35.875Z,6.98
2022-11-16T15:22:04.297Z,6.98
2022-11-16T15:24:35.101Z,6.98
2022-11-16T15:27:31.053Z,6.99
2022-11-16T15:30:01.140Z,6.99
2022-11-16T15:32:27.550Z,6.99
2022-11-16T15:34:54.695Z,6.98
2022-11-16T15:37:30.786Z,6.97
2022-11-16T15:39:58.677Z,6.97
2022-11-16T15:42:27.996Z,6.96
2022-11-16T15:44:55.512Z,6.94
2022-11-16T15:47:23.376Z,6.94
2022-11-16T15:49:53.088Z,6.94
2022-11-16T15:52:43.532Z,6.93
2022-11-16T15:55:30.547Z,6.93
2022-11-16T15:58:02.884Z,6.93
2022-11-16T16:00:30.999Z,6.93
2022-11-16T16:03:18.983Z,6.93
2022-11-16T16:05:45.655Z,6.92
2022-11-16T16:08:28.181Z,6.92
2022-11-16T16:11:20.340Z,6.92
2022-11-16T16:14:04.416Z,6.91
2022-11-16T16:16:39.137Z,6.92
2022-11-16T16:19:27.406Z,6.93
2022-11-16T16:21:54.088Z,6.93
2022-11-16T16:24:44.142Z,6.93
2022-11-16T16:27:22.539Z,6.95
2022-11-16T16:29:51.062Z,6.94
2022-11-16T16:32:26.695Z,6.94
2022-11-16T16:34:58.147Z,6.94
2022-11-16T16:37:30.452Z,6.94
2022-11-16T16:39:58.111Z,6.95
2022-11-16T16:42:25.584Z,6.94
2022-11-16T16:44:52.444Z,6.94
2022-11-16T16:47:22.376Z,6.96
2022-11-16T16:49:49.653Z,6.95
2022-11-16T16:52:17.057Z,6.93
2022-11-16T16:54:43.671Z,6.91
2022-11-16T16:57:15.653Z,6.90
2022-11-16T16:59:45.191Z,6.90
2022-11-16T17:02:12.836Z,6.91
2022-11-16T17:04:39.406Z,6.91
2022-11-16T17:07:06.576Z,6.91
2022-11-16T17:09:33.032Z,6.92
2022-11-16T17:11:59.491Z,6.92
2022-11-16T17:14:26.101Z,6.92
2022-11-16T17:16:52.674Z,6.93
2022-11-16T17:19:19.830Z,6.93
2022-11-16T17:21:46.491Z,6.93
2022-11-16T17:24:12.941Z,6.90
2022-11-16T17:26:40.603Z,6.88
2022-11-16T17:29:07.125Z,6.87
2022-11-16T17:31:33.622Z,6.87
2022-11-16T17:34:00.037Z,6.87
2022-11-16T17:36:26.502Z,6.87
2022-11-16T17:38:52.975Z,6.87
2022-11-16T17:41:24.143Z,6.87
2022-11-16T17:43:53.186Z,6.87
2022-11-16T17:46:21.917Z,6.87
2022-11-16T17:48:50.695Z,6.86
2022-11-16T17:51:19.913Z,6.87
2022-11-16T17:53:46.973Z,6.86
2022-11-16T17:56:15.567Z,6.84
2022-11-16T17:58:42.264Z,6.85
2022-11-16T18:01:08.913Z,6.87
2022-11-16T18:03:36.785Z,6.89
2022-11-16T18:06:06.151Z,6.89
2022-11-16T18:08:34.318Z,6.88
2022-11-16T18:11:09.634Z,6.88
2022-11-16T18:13:36.811Z,6.88
2022-11-16T18:16:07.702Z,6.88
2022-11-16T18:18:34.307Z,6.89
2022-11-16T18:21:01.286Z,6.89
2022-11-16T18:23:29.156Z,6.91
2022-11-16T18:25:56.188Z,6.92
2022-11-16T18:28:23.039Z,6.91
2022-11-16T18:30:50.112Z,6.91
2022-11-16T18:33:17.181Z,6.89
2022-11-16T18:35:44.259Z,6.88
2022-11-16T18:38:13.518Z,6.87
2022-11-16T18:40:40.386Z,6.88
2022-11-16T18:43:12.786Z,6.86
2022-11-16T18:45:39.218Z,6.88
2022-11-16T18:48:06.133Z,6.90
2022-11-16T18:50:32.608Z,6.91
2022-11-16T18:52:59.221Z,6.93
2022-11-16T18:55:25.613Z,6.93
2022-11-16T18:57:52.153Z,6.94
2022-11-16T19:00:19.467Z,6.95
2022-11-16T19:02:45.867Z,6.94
2022-11-16T19:05:12.354Z,6.91
2022-11-16T19:07:38.819Z,6.90
2022-11-16T19:10:05.778Z,6.90
2022-11-16T19:12:32.393Z,6.90
2022-11-16T19:14:58.853Z,6.91
2022-11-16T19:17:26.988Z,6.88
2022-11-16T19:19:53.469Z,6.89
2022-11-16T19:22:20.529Z,6.89
2022-11-16T19:24:46.950Z,6.89
2022-11-16T19:27:13.392Z,6.91
2022-11-16T19:29:39.814Z,6.90
2022-11-16T19:32:07.372Z,6.91
2022-11-16T19:34:33.805Z,6.92
2022-11-16T19:37:01.291Z,6.93
2022-11-16T19:39:27.942Z,6.92
2022-11-16T19:41:54.530Z,6.92
2022-11-16T19:44:20.990Z,6.94
2022-11-16T19:46:47.466Z,6.93
2022-11-16T19:49:19.943Z,6.96
2022-11-16T19:51:46.863Z,6.97
2022-11-16T19:54:15.864Z,6.98
2022-11-16T19:56:43.397Z,6.98
2022-11-16T19:59:10.008Z,6.98
2022-11-16T20:01:36.485Z,6.98
2022-11-16T20:04:04.147Z,6.98
2022-11-16T20:06:36.478Z,6.98
2022-11-16T20:09:11.225Z,6.98
2022-11-16T20:11:40.235Z,6.97
2022-11-16T20:14:08.956Z,6.93
2022-11-16T20:16:39.567Z,6.92
2022-11-16T20:19:08.027Z,6.91
2022-11-16T20:21:37.131Z,6.89
2022-11-16T20:24:07.025Z,6.88
2022-11-16T20:26:34.968Z,6.88
2022-11-16T20:29:01.776Z,6.86
2022-11-16T20:31:30.512Z,6.85
2022-11-16T20:33:59.482Z,6.84
2022-11-16T20:36:29.473Z,6.83
2022-11-16T20:38:58.297Z,6.82
2022-11-16T20:41:27.422Z,6.82
2022-11-16T20:43:59.087Z,6.81
2022-11-16T20:46:27.871Z,6.79
2022-11-16T20:48:57.014Z,6.77
2022-11-16T20:51:24.482Z,6.75
2022-11-16T20:53:52.377Z,6.72
2022-11-16T20:56:19.905Z,6.69
2022-11-16T20:58:47.576Z,6.68
2022-11-16T21:01:28.716Z,6.67
2022-11-16T21:03:56.101Z,6.66
2022-11-16T21:06:23.187Z,6.66
2022-11-16T21:08:49.755Z,6.65
2022-11-16T21:11:23.257Z,6.63
2022-11-16T21:14:08.493Z,6.63
2022-11-16T21:16:35.507Z,6.63
2022-11-16T21:19:02.519Z,6.63
2022-11-16T21:21:29.238Z,6.65
2022-11-16T21:23:55.882Z,6.65
2022-11-16T21:26:24.658Z,6.65
2022-11-16T21:28:51.823Z,6.65
2022-11-16T21:31:21.075Z,6.65
2022-11-16T21:33:48.046Z,6.65
2022-11-16T21:36:16.763Z,6.65
2022-11-16T21:38:43.629Z,6.65
2022-11-16T21:41:11.971Z,6.64
2022-11-16T21:43:40.302Z,6.64
2022-11-16T21:46:19.009Z,6.60
2022-11-16T21:48:51.086Z,6.58
2022-11-16T21:51:19.267Z,6.57
2022-11-16T21:53:46.530Z,6.53
2022-11-16T21:56:17.901Z,6.52
2022-11-16T21:58:45.265Z,6.50
2022-11-16T22:01:13.048Z,6.48
2022-11-16T22:03:39.704Z,6.43
2022-11-16T22:06:26.932Z,6.39
2022-11-16T22:08:53.412Z,6.38
2022-11-16T22:11:22.168Z,6.38
2022-11-16T22:13:49.949Z,6.37
2022-11-16T22:16:18.222Z,6.36
2022-11-16T22:18:44.835Z,6.33
2022-11-16T22:21:11.596Z,6.30
2022-11-16T22:23:38.903Z,6.30
2022-11-16T22:26:08.292Z,6.30
2022-11-16T22:28:35.681Z,6.29
2022-11-16T22:31:03.920Z,6.28
2022-11-16T22:33:30.563Z,6.28
2022-11-16T22:35:57.537Z,6.26
2022-11-16T22:38:24.189Z,6.23
2022-11-16T22:40:52.830Z,6.21
2022-11-16T22:43:20.455Z,6.20
2022-11-16T22:45:47.072Z,6.20
2022-11-16T22:48:14.260Z,6.19
2022-11-16T22:50:41.915Z,6.21
2022-11-16T22:53:09.715Z,6.20
2022-11-16T22:55:37.732Z,6.18
2022-11-16T22:58:05.477Z,6.17
2022-11-16T23:00:37.527Z,6.15
2022-11-16T23:03:07.283Z,6.14
2022-11-16T23:05:33.753Z,6.14
2022-11-16T23:08:00.280Z,6.14
2022-11-16T23:10:27.703Z,6.13
2022-11-16T23:13:12.868Z,6.15
2022-11-16T23:15:51.424Z,6.15
2022-11-16T23:18:19.672Z,6.12
2022-11-16T23:21:04.852Z,6.12
2022-11-16T23:23:50.067Z,6.10
2022-11-16T23:26:41.835Z,6.09
2022-11-16T23:29:10.482Z,6.08
2022-11-16T23:31:37.650Z,6.07
2022-11-16T23:34:05.216Z,6.05
2022-11-16T23:36:31.944Z,6.03
2022-11-16T23:38:58.489Z,6.04
2022-11-16T23:41:43.542Z,6.04
2022-11-16T23:44:10.046Z,6.01
2022-11-16T23:46:36.526Z,6.01
2022-11-16T23:49:03.117Z,5.99
2022-11-16T23:51:29.625Z,5.99
2022-11-16T23:53:56.209Z,5.97
2022-11-16T23:56:23.593Z,5.97
2022-11-16T23:58:50.212Z,5.96
